sensor_id;sensor_type;location;lat;lon;timestamp;temperature;humidity
3684;DHT22;1858;48.716;9.648;2022-07-18T00:02:18;16.10;1.00
3684;DHT22;1858;48.716;9.648;2022-07-18T00:04:47;16.20;1.00
3684;DHT22;1858;48.716;9.648;2022-07-18T00:07:16;16.30;1.00
3684;DHT22;1858;48.716;9.648;2022-07-18T00:09:44;16.30;1.00
3684;DHT22;1858;48.716;9.648;2022-07-18T00:12:12;16.30;1.00
3684;DHT22;1858;48.716;9.648;2022-07-18T00:14:41;16.20;1.00
3684;DHT22;1858;48.716;9.648;2022-07-18T00:17:10;16.20;1.00
3684;DHT22;1858;48.716;9.648;2022-07-18T00:19:38;16.20;1.00
3684;DHT22;1858;48.716;9.648;2022-07-18T00:22:06;15.90;1.00
3684;DHT22;1858;48.716;9.648;2022-07-18T00:24:33;15.90;1.00
3684;DHT22;1858;48.716;9.648;2022-07-18T00:27:03;15.80;1.00
3684;DHT22;1858;48.716;9.648;2022-07-18T00:29:33;15.70;1.00
3684;DHT22;1858;48.716;9.648;2022-07-18T00:32:07;15.60;1.00
3684;DHT22;1858;48.716;9.648;2022-07-18T00:34:34;15.50;6.60
3684;DHT22;1858;48.716;9.648;2022-07-18T00:37:02;15.40;22.60
3684;DHT22;1858;48.716;9.648;2022-07-18T00:39:30;15.40;11.90
3684;DHT22;1858;48.716;9.648;2022-07-18T00:41:57;15.40;12.00
3684;DHT22;1858;48.716;9.648;2022-07-18T00:44:26;15.40;8.20
3684;DHT22;1858;48.716;9.648;2022-07-18T00:47:00;15.30;13.50
3684;DHT22;1858;48.716;9.648;2022-07-18T00:49:28;15.10;24.20
3684;DHT22;1858;48.716;9.648;2022-07-18T00:51:56;15.00;56.80
3684;DHT22;1858;48.716;9.648;2022-07-18T00:54:24;14.90;99.90
3684;DHT22;1858;48.716;9.648;2022-07-18T00:56:52;14.80;99.90
3684;DHT22;1858;48.716;9.648;2022-07-18T00:59:20;14.70;99.90
3684;DHT22;1858;48.716;9.648;2022-07-18T01:01:47;14.60;99.90
3684;DHT22;1858;48.716;9.648;2022-07-18T01:04:16;14.60;99.90
3684;DHT22;1858;48.716;9.648;2022-07-18T01:06:45;14.50;99.90
3684;DHT22;1858;48.716;9.648;2022-07-18T01:09:14;14.50;99.90
3684;DHT22;1858;48.716;9.648;2022-07-18T01:11:43;14.40;99.90
3684;DHT22;1858;48.716;9.648;2022-07-18T01:14:11;14.30;99.90
3684;DHT22;1858;48.716;9.648;2022-07-18T01:16:39;14.20;99.90
3684;DHT22;1858;48.716;9.648;2022-07-18T01:19:06;14.20;99.90
3684;DHT22;1858;48.716;9.648;2022-07-18T01:21:34;14.20;99.90
3684;DHT22;1858;48.716;9.648;2022-07-18T01:24:03;14.10;99.90
3684;DHT22;1858;48.716;9.648;2022-07-18T01:26:31;14.00;99.90
3684;DHT22;1858;48.716;9.648;2022-07-18T01:29:00;14.00;99.90
3684;DHT22;1858;48.716;9.648;2022-07-18T01:31:48;14.00;99.90
3684;DHT22;1858;48.716;9.648;2022-07-18T01:34:20;14.00;99.90
3684;DHT22;1858;48.716;9.648;2022-07-18T01:36:45;14.10;99.90
3684;DHT22;1858;48.716;9.648;2022-07-18T01:39:13;14.10;99.90
3684;DHT22;1858;48.716;9.648;2022-07-18T01:41:40;14.00;99.90
3684;DHT22;1858;48.716;9.648;2022-07-18T01:44:08;13.90;99.90
3684;DHT22;1858;48.716;9.648;2022-07-18T01:46:35;13.90;99.90
3684;DHT22;1858;48.716;9.648;2022-07-18T01:49:03;13.80;99.90
3684;DHT22;1858;48.716;9.648;2022-07-18T01:51:31;13.70;99.90
3684;DHT22;1858;48.716;9.648;2022-07-18T01:53:58;13.70;99.90
3684;DHT22;1858;48.716;9.648;2022-07-18T01:56:27;13.60;99.90
3684;DHT22;1858;48.716;9.648;2022-07-18T01:58:55;13.50;99.90
3684;DHT22;1858;48.716;9.648;2022-07-18T02:01:23;13.40;99.90
3684;DHT22;1858;48.716;9.648;2022-07-18T02:03:51;13.40;99.90
3684;DHT22;1858;48.716;9.648;2022-07-18T02:06:18;13.30;99.90
3684;DHT22;1858;48.716;9.648;2022-07-18T02:08:46;13.30;99.90
3684;DHT22;1858;48.716;9.648;2022-07-18T02:11:13;13.40;99.90
3684;DHT22;1858;48.716;9.648;2022-07-18T02:13:41;13.40;99.90
3684;DHT22;1858;48.716;9.648;2022-07-18T02:16:09;13.50;99.90
3684;DHT22;1858;48.716;9.648;2022-07-18T02:18:36;13.40;99.90
3684;DHT22;1858;48.716;9.648;2022-07-18T02:21:04;13.30;99.90
3684;DHT22;1858;48.716;9.648;2022-07-18T02:23:32;13.30;99.90
3684;DHT22;1858;48.716;9.648;2022-07-18T02:25:59;13.30;99.90
3684;DHT22;1858;48.716;9.648;2022-07-18T02:28:27;13.30;99.90
3684;DHT22;1858;48.716;9.648;2022-07-18T02:30:55;13.30;99.90
3684;DHT22;1858;48.716;9.648;2022-07-18T02:33:22;13.30;99.90
3684;DHT22;1858;48.716;9.648;2022-07-18T02:35:50;13.30;99.90
3684;DHT22;1858;48.716;9.648;2022-07-18T02:38:18;13.20;99.90
3684;DHT22;1858;48.716;9.648;2022-07-18T02:40:45;13.10;99.90
3684;DHT22;1858;48.716;9.648;2022-07-18T02:43:13;13.10;99.90
3684;DHT22;1858;48.716;9.648;2022-07-18T02:45:40;13.10;99.90
3684;DHT22;1858;48.716;9.648;2022-07-18T02:48:08;13.10;99.90
3684;DHT22;1858;48.716;9.648;2022-07-18T02:50:36;13.10;99.90
3684;DHT22;1858;48.716;9.648;2022-07-18T02:53:04;13.00;99.90
3684;DHT22;1858;48.716;9.648;2022-07-18T02:55:31;13.00;99.90
3684;DHT22;1858;48.716;9.648;2022-07-18T02:57:59;12.90;99.90
3684;DHT22;1858;48.716;9.648;2022-07-18T03:00:26;12.80;99.90
3684;DHT22;1858;48.716;9.648;2022-07-18T03:02:54;12.70;99.90
3684;DHT22;1858;48.716;9.648;2022-07-18T03:05:22;12.60;99.90
3684;DHT22;1858;48.716;9.648;2022-07-18T03:07:49;12.60;99.90
3684;DHT22;1858;48.716;9.648;2022-07-18T03:10:17;12.50;99.90
3684;DHT22;1858;48.716;9.648;2022-07-18T03:12:44;12.60;99.90
3684;DHT22;1858;48.716;9.648;2022-07-18T03:15:12;12.60;99.90
3684;DHT22;1858;48.716;9.648;2022-07-18T03:17:41;12.60;99.90
3684;DHT22;1858;48.716;9.648;2022-07-18T03:20:09;12.60;99.90
3684;DHT22;1858;48.716;9.648;2022-07-18T03:22:42;12.60;99.90
3684;DHT22;1858;48.716;9.648;2022-07-18T03:25:10;12.60;99.90
3684;DHT22;1858;48.716;9.648;2022-07-18T03:27:38;12.60;99.90
3684;DHT22;1858;48.716;9.648;2022-07-18T03:30:08;12.60;99.90
3684;DHT22;1858;48.716;9.648;2022-07-18T03:32:38;12.60;99.90
3684;DHT22;1858;48.716;9.648;2022-07-18T03:35:08;12.60;99.90
3684;DHT22;1858;48.716;9.648;2022-07-18T03:37:39;12.60;99.90
3684;DHT22;1858;48.716;9.648;2022-07-18T03:40:08;12.50;99.90
3684;DHT22;1858;48.716;9.648;2022-07-18T03:42:37;12.40;99.90
3684;DHT22;1858;48.716;9.648;2022-07-18T03:45:07;12.40;99.90
3684;DHT22;1858;48.716;9.648;2022-07-18T03:47:36;12.30;99.90
3684;DHT22;1858;48.716;9.648;2022-07-18T03:50:08;12.20;99.90
3684;DHT22;1858;48.716;9.648;2022-07-18T03:52:53;12.30;99.90
3684;DHT22;1858;48.716;9.648;2022-07-18T03:55:21;12.20;99.90
3684;DHT22;1858;48.716;9.648;2022-07-18T04:00:36;12.20;99.90
3684;DHT22;1858;48.716;9.648;2022-07-18T04:03:26;12.20;99.90
3684;DHT22;1858;48.716;9.648;2022-07-18T04:05:54;12.20;99.90
3684;DHT22;1858;48.716;9.648;2022-07-18T04:08:22;12.20;99.90
3684;DHT22;1858;48.716;9.648;2022-07-18T04:10:52;12.30;99.90
3684;DHT22;1858;48.716;9.648;2022-07-18T04:13:21;12.40;99.90
3684;DHT22;1858;48.716;9.648;2022-07-18T04:15:48;12.40;99.90
3684;DHT22;1858;48.716;9.648;2022-07-18T04:18:16;12.40;99.90
3684;DHT22;1858;48.716;9.648;2022-07-18T04:20:44;12.40;99.90
3684;DHT22;1858;48.716;9.648;2022-07-18T04:23:13;12.50;99.90
3684;DHT22;1858;48.716;9.648;2022-07-18T04:25:40;12.50;99.90
3684;DHT22;1858;48.716;9.648;2022-07-18T04:28:10;12.60;99.90
3684;DHT22;1858;48.716;9.648;2022-07-18T04:30:38;12.70;99.90
3684;DHT22;1858;48.716;9.648;2022-07-18T04:33:07;12.80;99.90
3684;DHT22;1858;48.716;9.648;2022-07-18T04:35:36;12.80;99.90
3684;DHT22;1858;48.716;9.648;2022-07-18T04:38:08;12.90;99.90
3684;DHT22;1858;48.716;9.648;2022-07-18T04:40:37;12.90;99.90
3684;DHT22;1858;48.716;9.648;2022-07-18T04:43:06;13.00;99.90
3684;DHT22;1858;48.716;9.648;2022-07-18T04:45:34;13.10;99.90
3684;DHT22;1858;48.716;9.648;2022-07-18T04:48:07;13.10;99.90
3684;DHT22;1858;48.716;9.648;2022-07-18T04:50:34;13.30;99.90
3684;DHT22;1858;48.716;9.648;2022-07-18T04:53:03;13.30;99.90
3684;DHT22;1858;48.716;9.648;2022-07-18T04:55:34;13.30;99.90
3684;DHT22;1858;48.716;9.648;2022-07-18T04:58:01;13.40;99.90
3684;DHT22;1858;48.716;9.648;2022-07-18T05:00:29;13.50;99.90
3684;DHT22;1858;48.716;9.648;2022-07-18T05:02:57;13.70;99.90
3684;DHT22;1858;48.716;9.648;2022-07-18T05:05:27;13.80;99.90
3684;DHT22;1858;48.716;9.648;2022-07-18T05:07:59;13.90;99.90
3684;DHT22;1858;48.716;9.648;2022-07-18T05:10:27;14.00;99.90
3684;DHT22;1858;48.716;9.648;2022-07-18T05:12:54;14.10;99.90
3684;DHT22;1858;48.716;9.648;2022-07-18T05:15:24;14.20;99.90
3684;DHT22;1858;48.716;9.648;2022-07-18T05:17:51;14.30;99.90
3684;DHT22;1858;48.716;9.648;2022-07-18T05:20:22;14.60;99.90
3684;DHT22;1858;48.716;9.648;2022-07-18T05:22:49;14.60;99.90
3684;DHT22;1858;48.716;9.648;2022-07-18T05:25:22;14.70;99.90
3684;DHT22;1858;48.716;9.648;2022-07-18T05:27:50;14.90;99.90
3684;DHT22;1858;48.716;9.648;2022-07-18T05:30:18;15.00;99.90
3684;DHT22;1858;48.716;9.648;2022-07-18T05:32:48;15.20;86.80
3684;DHT22;1858;48.716;9.648;2022-07-18T05:35:17;15.30;99.90
3684;DHT22;1858;48.716;9.648;2022-07-18T05:37:50;15.40;99.90
3684;DHT22;1858;48.716;9.648;2022-07-18T05:40:19;15.70;53.90
3684;DHT22;1858;48.716;9.648;2022-07-18T05:42:49;15.80;62.00
3684;DHT22;1858;48.716;9.648;2022-07-18T05:45:21;15.90;41.20
3684;DHT22;1858;48.716;9.648;2022-07-18T05:47:50;16.10;30.90
3684;DHT22;1858;48.716;9.648;2022-07-18T05:50:20;16.30;39.40
3684;DHT22;1858;48.716;9.648;2022-07-18T05:52:50;16.50;1.80
3684;DHT22;1858;48.716;9.648;2022-07-18T05:55:19;16.80;1.00
3684;DHT22;1858;48.716;9.648;2022-07-18T05:57:48;17.00;1.00
3684;DHT22;1858;48.716;9.648;2022-07-18T06:00:18;17.20;1.00
3684;DHT22;1858;48.716;9.648;2022-07-18T06:02:48;17.40;1.00
3684;DHT22;1858;48.716;9.648;2022-07-18T06:05:17;17.40;1.00
3684;DHT22;1858;48.716;9.648;2022-07-18T06:07:46;17.60;1.00
3684;DHT22;1858;48.716;9.648;2022-07-18T06:10:14;17.80;1.00
3684;DHT22;1858;48.716;9.648;2022-07-18T06:12:43;18.00;1.00
3684;DHT22;1858;48.716;9.648;2022-07-18T06:15:19;18.10;1.00
3684;DHT22;1858;48.716;9.648;2022-07-18T06:17:47;18.30;1.00
3684;DHT22;1858;48.716;9.648;2022-07-18T06:20:17;18.40;1.00
3684;DHT22;1858;48.716;9.648;2022-07-18T06:22:46;18.50;1.00
3684;DHT22;1858;48.716;9.648;2022-07-18T06:25:15;18.70;1.00
3684;DHT22;1858;48.716;9.648;2022-07-18T06:27:43;18.90;1.00
3684;DHT22;1858;48.716;9.648;2022-07-18T06:30:11;19.20;1.00
3684;DHT22;1858;48.716;9.648;2022-07-18T06:32:40;19.60;1.00
3684;DHT22;1858;48.716;9.648;2022-07-18T06:35:08;20.00;1.00
3684;DHT22;1858;48.716;9.648;2022-07-18T06:37:37;20.40;1.00
3684;DHT22;1858;48.716;9.648;2022-07-18T06:40:05;20.90;1.00
3684;DHT22;1858;48.716;9.648;2022-07-18T06:42:33;22.00;1.00
3684;DHT22;1858;48.716;9.648;2022-07-18T06:45:01;23.90;1.00
3684;DHT22;1858;48.716;9.648;2022-07-18T06:47:29;26.10;1.00
3684;DHT22;1858;48.716;9.648;2022-07-18T06:49:57;27.90;1.00
3684;DHT22;1858;48.716;9.648;2022-07-18T06:52:24;29.60;99.90
3684;DHT22;1858;48.716;9.648;2022-07-18T06:54:52;31.30;99.90
3684;DHT22;1858;48.716;9.648;2022-07-18T06:57:23;32.40;99.90
3684;DHT22;1858;48.716;9.648;2022-07-18T06:59:51;33.30;99.90
3684;DHT22;1858;48.716;9.648;2022-07-18T07:02:20;34.60;99.90
3684;DHT22;1858;48.716;9.648;2022-07-18T07:04:49;35.40;99.90
3684;DHT22;1858;48.716;9.648;2022-07-18T07:07:16;36.40;99.90
3684;DHT22;1858;48.716;9.648;2022-07-18T07:09:44;37.00;99.90
3684;DHT22;1858;48.716;9.648;2022-07-18T07:12:14;37.70;99.90
3684;DHT22;1858;48.716;9.648;2022-07-18T07:14:42;37.90;99.90
3684;DHT22;1858;48.716;9.648;2022-07-18T07:17:10;37.80;99.90
3684;DHT22;1858;48.716;9.648;2022-07-18T07:19:39;38.40;99.90
3684;DHT22;1858;48.716;9.648;2022-07-18T07:22:08;38.90;99.90
3684;DHT22;1858;48.716;9.648;2022-07-18T07:24:35;39.00;99.90
3684;DHT22;1858;48.716;9.648;2022-07-18T07:27:05;39.70;99.90
3684;DHT22;1858;48.716;9.648;2022-07-18T07:29:33;40.50;99.90
3684;DHT22;1858;48.716;9.648;2022-07-18T07:32:01;41.00;99.90
3684;DHT22;1858;48.716;9.648;2022-07-18T07:37:19;41.60;99.90
3684;DHT22;1858;48.716;9.648;2022-07-18T07:39:46;41.50;99.90
3684;DHT22;1858;48.716;9.648;2022-07-18T07:45:04;41.70;99.90
3684;DHT22;1858;48.716;9.648;2022-07-18T07:47:32;42.00;99.90
3684;DHT22;1858;48.716;9.648;2022-07-18T07:49:59;41.40;99.90
3684;DHT22;1858;48.716;9.648;2022-07-18T07:52:29;41.50;99.90
3684;DHT22;1858;48.716;9.648;2022-07-18T07:54:56;42.00;99.90
3684;DHT22;1858;48.716;9.648;2022-07-18T07:57:24;42.10;99.90
3684;DHT22;1858;48.716;9.648;2022-07-18T07:59:52;42.20;99.90
3684;DHT22;1858;48.716;9.648;2022-07-18T08:02:20;42.80;99.90
3684;DHT22;1858;48.716;9.648;2022-07-18T08:04:49;42.80;99.90
3684;DHT22;1858;48.716;9.648;2022-07-18T08:07:20;43.60;99.90
3684;DHT22;1858;48.716;9.648;2022-07-18T08:09:50;43.70;99.90
3684;DHT22;1858;48.716;9.648;2022-07-18T08:12:18;42.90;99.90
3684;DHT22;1858;48.716;9.648;2022-07-18T08:14:45;42.60;99.90
3684;DHT22;1858;48.716;9.648;2022-07-18T08:17:15;42.60;99.90
3684;DHT22;1858;48.716;9.648;2022-07-18T08:19:42;43.50;99.90
3684;DHT22;1858;48.716;9.648;2022-07-18T08:22:11;44.00;99.90
3684;DHT22;1858;48.716;9.648;2022-07-18T08:24:39;44.50;99.90
3684;DHT22;1858;48.716;9.648;2022-07-18T08:27:06;43.80;99.90
3684;DHT22;1858;48.716;9.648;2022-07-18T08:29:35;44.10;99.90
3684;DHT22;1858;48.716;9.648;2022-07-18T08:32:03;43.80;99.90
3684;DHT22;1858;48.716;9.648;2022-07-18T08:34:31;44.30;99.90
3684;DHT22;1858;48.716;9.648;2022-07-18T08:36:59;44.70;99.90
3684;DHT22;1858;48.716;9.648;2022-07-18T08:39:26;45.30;99.90
3684;DHT22;1858;48.716;9.648;2022-07-18T08:41:54;45.20;99.90
3684;DHT22;1858;48.716;9.648;2022-07-18T08:44:22;45.50;99.90
3684;DHT22;1858;48.716;9.648;2022-07-18T08:46:51;46.10;99.90
3684;DHT22;1858;48.716;9.648;2022-07-18T08:49:20;46.70;99.90
3684;DHT22;1858;48.716;9.648;2022-07-18T08:51:48;47.50;99.90
3684;DHT22;1858;48.716;9.648;2022-07-18T08:54:17;47.80;99.90
3684;DHT22;1858;48.716;9.648;2022-07-18T08:56:44;48.10;99.90
3684;DHT22;1858;48.716;9.648;2022-07-18T08:59:12;48.10;99.90
3684;DHT22;1858;48.716;9.648;2022-07-18T09:01:40;48.50;99.90
3684;DHT22;1858;48.716;9.648;2022-07-18T09:04:09;48.80;99.90
3684;DHT22;1858;48.716;9.648;2022-07-18T09:07:03;49.30;99.90
3684;DHT22;1858;48.716;9.648;2022-07-18T09:09:31;49.40;99.90
3684;DHT22;1858;48.716;9.648;2022-07-18T09:12:00;49.50;99.90
3684;DHT22;1858;48.716;9.648;2022-07-18T09:14:34;48.40;99.90
3684;DHT22;1858;48.716;9.648;2022-07-18T09:17:08;48.00;99.90
3684;DHT22;1858;48.716;9.648;2022-07-18T09:20:01;48.90;99.90
3684;DHT22;1858;48.716;9.648;2022-07-18T09:22:48;49.50;99.90
3684;DHT22;1858;48.716;9.648;2022-07-18T09:25:18;50.30;99.90
3684;DHT22;1858;48.716;9.648;2022-07-18T09:27:55;50.20;99.90
3684;DHT22;1858;48.716;9.648;2022-07-18T09:30:28;50.40;99.90
3684;DHT22;1858;48.716;9.648;2022-07-18T09:35:41;51.10;99.90
3684;DHT22;1858;48.716;9.648;2022-07-18T09:38:07;51.00;99.90
3684;DHT22;1858;48.716;9.648;2022-07-18T09:40:38;50.40;99.90
3684;DHT22;1858;48.716;9.648;2022-07-18T09:43:10;49.30;99.90
3684;DHT22;1858;48.716;9.648;2022-07-18T09:45:42;48.60;99.90
3684;DHT22;1858;48.716;9.648;2022-07-18T09:48:17;48.50;99.90
3684;DHT22;1858;48.716;9.648;2022-07-18T09:50:59;48.70;99.90
3684;DHT22;1858;48.716;9.648;2022-07-18T09:53:31;48.50;99.90
3684;DHT22;1858;48.716;9.648;2022-07-18T09:56:12;49.00;99.90
3684;DHT22;1858;48.716;9.648;2022-07-18T09:58:53;49.20;99.90
3684;DHT22;1858;48.716;9.648;2022-07-18T10:01:13;49.50;99.90
3684;DHT22;1858;48.716;9.648;2022-07-18T10:03:42;49.70;99.90
3684;DHT22;1858;48.716;9.648;2022-07-18T10:06:13;50.60;99.90
3684;DHT22;1858;48.716;9.648;2022-07-18T10:08:45;51.10;99.90
3684;DHT22;1858;48.716;9.648;2022-07-18T10:11:14;51.00;99.90
3684;DHT22;1858;48.716;9.648;2022-07-18T10:13:42;51.20;99.90
3684;DHT22;1858;48.716;9.648;2022-07-18T10:16:12;50.60;99.90
3684;DHT22;1858;48.716;9.648;2022-07-18T10:18:42;51.00;99.90
3684;DHT22;1858;48.716;9.648;2022-07-18T10:21:13;51.00;99.90
3684;DHT22;1858;48.716;9.648;2022-07-18T10:23:45;50.90;99.90
3684;DHT22;1858;48.716;9.648;2022-07-18T10:31:39;50.20;99.90
3684;DHT22;1858;48.716;9.648;2022-07-18T10:34:11;49.30;99.90
3684;DHT22;1858;48.716;9.648;2022-07-18T10:39:32;49.60;99.90
3684;DHT22;1858;48.716;9.648;2022-07-18T10:44:33;49.50;99.90
3684;DHT22;1858;48.716;9.648;2022-07-18T10:47:27;49.90;99.90
3684;DHT22;1858;48.716;9.648;2022-07-18T11:00:32;50.30;99.90
3684;DHT22;1858;48.716;9.648;2022-07-18T11:05:55;50.30;99.90
3684;DHT22;1858;48.716;9.648;2022-07-18T11:08:24;49.70;99.90
3684;DHT22;1858;48.716;9.648;2022-07-18T11:13:30;49.50;99.90
3684;DHT22;1858;48.716;9.648;2022-07-18T11:21:28;45.50;99.90
3684;DHT22;1858;48.716;9.648;2022-07-18T11:24:12;43.60;99.90
3684;DHT22;1858;48.716;9.648;2022-07-18T11:26:46;42.40;99.90
3684;DHT22;1858;48.716;9.648;2022-07-18T11:29:18;41.50;99.90
3684;DHT22;1858;48.716;9.648;2022-07-18T11:31:53;41.00;99.90
3684;DHT22;1858;48.716;9.648;2022-07-18T11:34:24;40.60;99.90
3684;DHT22;1858;48.716;9.648;2022-07-18T11:36:55;40.00;99.90
3684;DHT22;1858;48.716;9.648;2022-07-18T11:39:32;39.10;99.90
3684;DHT22;1858;48.716;9.648;2022-07-18T11:42:34;38.60;99.90
3684;DHT22;1858;48.716;9.648;2022-07-18T11:44:58;38.30;99.90
3684;DHT22;1858;48.716;9.648;2022-07-18T11:47:30;38.00;99.90
3684;DHT22;1858;48.716;9.648;2022-07-18T11:49:59;37.80;99.90
3684;DHT22;1858;48.716;9.648;2022-07-18T11:52:28;37.40;99.90
3684;DHT22;1858;48.716;9.648;2022-07-18T11:55:00;37.20;99.90
3684;DHT22;1858;48.716;9.648;2022-07-18T11:57:31;37.20;99.90
3684;DHT22;1858;48.716;9.648;2022-07-18T12:00:13;36.90;99.90
3684;DHT22;1858;48.716;9.648;2022-07-18T12:03:09;36.70;99.90
3684;DHT22;1858;48.716;9.648;2022-07-18T12:05:41;36.50;99.90
3684;DHT22;1858;48.716;9.648;2022-07-18T12:08:34;36.20;99.90
3684;DHT22;1858;48.716;9.648;2022-07-18T12:11:18;35.70;99.90
3684;DHT22;1858;48.716;9.648;2022-07-18T12:13:56;35.50;99.90
3684;DHT22;1858;48.716;9.648;2022-07-18T12:19:20;35.70;99.90
3684;DHT22;1858;48.716;9.648;2022-07-18T12:22:03;35.60;99.90
3684;DHT22;1858;48.716;9.648;2022-07-18T12:27:16;35.30;99.90
3684;DHT22;1858;48.716;9.648;2022-07-18T12:30:04;35.30;99.90
3684;DHT22;1858;48.716;9.648;2022-07-18T12:32:48;35.20;99.90
3684;DHT22;1858;48.716;9.648;2022-07-18T12:35:44;35.10;99.90
3684;DHT22;1858;48.716;9.648;2022-07-18T12:41:05;34.90;99.90
3684;DHT22;1858;48.716;9.648;2022-07-18T12:43:35;34.80;99.90
3684;DHT22;1858;48.716;9.648;2022-07-18T12:46:09;34.60;99.90
3684;DHT22;1858;48.716;9.648;2022-07-18T12:48:38;34.70;99.90
3684;DHT22;1858;48.716;9.648;2022-07-18T12:51:09;34.60;99.90
3684;DHT22;1858;48.716;9.648;2022-07-18T12:53:41;34.50;99.90
3684;DHT22;1858;48.716;9.648;2022-07-18T12:56:11;34.60;99.90
3684;DHT22;1858;48.716;9.648;2022-07-18T12:58:39;34.70;99.90
3684;DHT22;1858;48.716;9.648;2022-07-18T13:01:08;34.70;99.90
3684;DHT22;1858;48.716;9.648;2022-07-18T13:03:43;34.70;99.90
3684;DHT22;1858;48.716;9.648;2022-07-18T13:06:08;34.60;99.90
3684;DHT22;1858;48.716;9.648;2022-07-18T13:08:36;34.50;99.90
3684;DHT22;1858;48.716;9.648;2022-07-18T13:11:06;34.10;99.90
3684;DHT22;1858;48.716;9.648;2022-07-18T13:13:35;34.00;99.90
3684;DHT22;1858;48.716;9.648;2022-07-18T13:16:04;34.00;99.90
3684;DHT22;1858;48.716;9.648;2022-07-18T13:18:32;34.00;99.90
3684;DHT22;1858;48.716;9.648;2022-07-18T13:21:04;33.90;99.90
3684;DHT22;1858;48.716;9.648;2022-07-18T13:23:33;33.80;99.90
3684;DHT22;1858;48.716;9.648;2022-07-18T13:26:01;33.80;99.90
3684;DHT22;1858;48.716;9.648;2022-07-18T13:28:29;33.90;99.90
3684;DHT22;1858;48.716;9.648;2022-07-18T13:31:00;33.80;99.90
3684;DHT22;1858;48.716;9.648;2022-07-18T13:33:29;33.80;99.90
3684;DHT22;1858;48.716;9.648;2022-07-18T13:35:59;33.80;99.90
3684;DHT22;1858;48.716;9.648;2022-07-18T13:38:27;33.80;99.90
3684;DHT22;1858;48.716;9.648;2022-07-18T13:41:00;33.80;99.90
3684;DHT22;1858;48.716;9.648;2022-07-18T13:43:29;33.80;99.90
3684;DHT22;1858;48.716;9.648;2022-07-18T13:46:00;33.80;99.90
3684;DHT22;1858;48.716;9.648;2022-07-18T13:48:28;33.80;99.90
3684;DHT22;1858;48.716;9.648;2022-07-18T13:50:57;33.70;99.90
3684;DHT22;1858;48.716;9.648;2022-07-18T13:53:26;33.70;99.90
3684;DHT22;1858;48.716;9.648;2022-07-18T13:55:54;33.60;99.90
3684;DHT22;1858;48.716;9.648;2022-07-18T14:01:15;33.60;99.90
3684;DHT22;1858;48.716;9.648;2022-07-18T14:03:43;33.50;99.90
3684;DHT22;1858;48.716;9.648;2022-07-18T14:06:14;33.40;99.90
3684;DHT22;1858;48.716;9.648;2022-07-18T14:09:04;33.30;99.90
3684;DHT22;1858;48.716;9.648;2022-07-18T14:11:33;33.30;99.90
3684;DHT22;1858;48.716;9.648;2022-07-18T14:14:21;33.30;99.90
3684;DHT22;1858;48.716;9.648;2022-07-18T14:16:49;33.30;99.90
3684;DHT22;1858;48.716;9.648;2022-07-18T14:19:19;33.30;99.90
3684;DHT22;1858;48.716;9.648;2022-07-18T14:21:47;33.30;99.90
3684;DHT22;1858;48.716;9.648;2022-07-18T14:24:16;33.30;99.90
3684;DHT22;1858;48.716;9.648;2022-07-18T14:26:45;33.30;99.90
3684;DHT22;1858;48.716;9.648;2022-07-18T14:29:14;33.30;99.90
3684;DHT22;1858;48.716;9.648;2022-07-18T14:31:44;33.20;99.90
3684;DHT22;1858;48.716;9.648;2022-07-18T14:34:13;33.10;99.90
3684;DHT22;1858;48.716;9.648;2022-07-18T14:36:41;33.20;99.90
3684;DHT22;1858;48.716;9.648;2022-07-18T14:39:19;33.30;99.90
3684;DHT22;1858;48.716;9.648;2022-07-18T14:41:48;33.10;99.90
3684;DHT22;1858;48.716;9.648;2022-07-18T14:44:16;33.10;99.90
3684;DHT22;1858;48.716;9.648;2022-07-18T14:46:45;33.10;99.90
3684;DHT22;1858;48.716;9.648;2022-07-18T14:49:13;33.10;99.90
3684;DHT22;1858;48.716;9.648;2022-07-18T14:51:42;33.20;99.90
3684;DHT22;1858;48.716;9.648;2022-07-18T14:54:11;33.20;99.90
3684;DHT22;1858;48.716;9.648;2022-07-18T14:56:59;33.10;99.90
3684;DHT22;1858;48.716;9.648;2022-07-18T14:59:29;33.10;99.90
3684;DHT22;1858;48.716;9.648;2022-07-18T15:01:58;33.10;99.90
3684;DHT22;1858;48.716;9.648;2022-07-18T15:04:28;33.00;99.90
3684;DHT22;1858;48.716;9.648;2022-07-18T15:06:56;33.00;99.90
3684;DHT22;1858;48.716;9.648;2022-07-18T15:09:25;33.00;99.90
3684;DHT22;1858;48.716;9.648;2022-07-18T15:11:53;33.00;99.90
3684;DHT22;1858;48.716;9.648;2022-07-18T15:14:21;33.10;99.90
3684;DHT22;1858;48.716;9.648;2022-07-18T15:16:50;33.10;99.90
3684;DHT22;1858;48.716;9.648;2022-07-18T15:19:19;33.00;99.90
3684;DHT22;1858;48.716;9.648;2022-07-18T15:21:47;33.00;99.90
3684;DHT22;1858;48.716;9.648;2022-07-18T15:24:16;32.90;99.90
3684;DHT22;1858;48.716;9.648;2022-07-18T15:26:45;32.90;99.90
3684;DHT22;1858;48.716;9.648;2022-07-18T15:29:17;32.90;99.90
3684;DHT22;1858;48.716;9.648;2022-07-18T15:31:46;32.80;99.90
3684;DHT22;1858;48.716;9.648;2022-07-18T15:34:14;32.80;99.90
3684;DHT22;1858;48.716;9.648;2022-07-18T15:36:42;32.80;99.90
3684;DHT22;1858;48.716;9.648;2022-07-18T15:39:11;32.70;99.90
3684;DHT22;1858;48.716;9.648;2022-07-18T15:41:39;32.60;99.90
3684;DHT22;1858;48.716;9.648;2022-07-18T15:44:10;32.60;99.90
3684;DHT22;1858;48.716;9.648;2022-07-18T15:46:42;32.60;99.90
3684;DHT22;1858;48.716;9.648;2022-07-18T15:49:10;32.70;99.90
3684;DHT22;1858;48.716;9.648;2022-07-18T15:51:41;32.50;99.90
3684;DHT22;1858;48.716;9.648;2022-07-18T15:54:14;32.50;99.90
3684;DHT22;1858;48.716;9.648;2022-07-18T15:56:43;32.50;99.90
3684;DHT22;1858;48.716;9.648;2022-07-18T15:59:14;32.50;99.90
3684;DHT22;1858;48.716;9.648;2022-07-18T16:02:02;32.40;99.90
3684;DHT22;1858;48.716;9.648;2022-07-18T16:04:33;32.40;99.90
3684;DHT22;1858;48.716;9.648;2022-07-18T16:07:02;32.40;99.90
3684;DHT22;1858;48.716;9.648;2022-07-18T16:09:31;32.40;99.90
3684;DHT22;1858;48.716;9.648;2022-07-18T16:12:06;32.30;99.90
3684;DHT22;1858;48.716;9.648;2022-07-18T16:14:35;32.20;99.90
3684;DHT22;1858;48.716;9.648;2022-07-18T16:17:03;32.20;99.90
3684;DHT22;1858;48.716;9.648;2022-07-18T16:19:35;32.10;99.90
3684;DHT22;1858;48.716;9.648;2022-07-18T16:22:04;32.10;99.90
3684;DHT22;1858;48.716;9.648;2022-07-18T16:24:36;32.10;99.90
3684;DHT22;1858;48.716;9.648;2022-07-18T16:27:04;32.00;99.90
3684;DHT22;1858;48.716;9.648;2022-07-18T16:29:33;32.00;99.90
3684;DHT22;1858;48.716;9.648;2022-07-18T16:32:03;32.00;99.90
3684;DHT22;1858;48.716;9.648;2022-07-18T16:34:41;32.00;99.90
3684;DHT22;1858;48.716;9.648;2022-07-18T16:37:09;31.90;99.90
3684;DHT22;1858;48.716;9.648;2022-07-18T16:39:38;31.80;99.90
3684;DHT22;1858;48.716;9.648;2022-07-18T16:42:26;31.70;99.90
3684;DHT22;1858;48.716;9.648;2022-07-18T16:44:56;31.70;99.90
3684;DHT22;1858;48.716;9.648;2022-07-18T16:50:22;31.60;99.90
3684;DHT22;1858;48.716;9.648;2022-07-18T16:52:52;31.60;99.90
3684;DHT22;1858;48.716;9.648;2022-07-18T16:55:41;31.50;99.90
3684;DHT22;1858;48.716;9.648;2022-07-18T16:58:10;31.30;99.90
3684;DHT22;1858;48.716;9.648;2022-07-18T17:03:29;31.10;99.90
3684;DHT22;1858;48.716;9.648;2022-07-18T17:06:01;30.90;99.90
3684;DHT22;1858;48.716;9.648;2022-07-18T17:08:30;30.80;99.90
3684;DHT22;1858;48.716;9.648;2022-07-18T17:14:07;30.80;99.90
3684;DHT22;1858;48.716;9.648;2022-07-18T17:16:36;30.60;99.90
3684;DHT22;1858;48.716;9.648;2022-07-18T17:19:06;30.50;99.90
3684;DHT22;1858;48.716;9.648;2022-07-18T17:21:35;30.50;99.90
3684;DHT22;1858;48.716;9.648;2022-07-18T17:26:54;30.30;99.90
3684;DHT22;1858;48.716;9.648;2022-07-18T17:29:23;30.20;99.90